createdAt,value
2023-02-16T00:01:45.033Z,102272.19
2023-02-16T00:04:19.775Z,102271.09
2023-02-16T00:06:46.962Z,102255.88
2023-02-16T00:09:13.720Z,102267.53
2023-02-16T00:11:59.689Z,102257.28
2023-02-16T00:14:27.214Z,102268.44
2023-02-16T00:16:55.049Z,102264.19
2023-02-16T00:19:26.266Z,102274.22
2023-02-16T00:21:55.155Z,102256.19
2023-02-16T00:24:22.371Z,102265.44
2023-02-16T00:26:49.360Z,102253.63
2023-02-16T00:29:21.164Z,102273.94
2023-02-16T00:31:48.446Z,102269.59
2023-02-16T00:34:18.069Z,102269.69
2023-02-16T00:36:44.866Z,102260.44
2023-02-16T00:39:11.612Z,102270.38
2023-02-16T00:41:50.443Z,102267.03
2023-02-16T00:44:20.332Z,102265.44
2023-02-16T00:46:47.351Z,102258.56
2023-02-16T00:49:17.378Z,102246.91
2023-02-16T00:51:44.232Z,102247.31
2023-02-16T00:54:11.075Z,102258.44
2023-02-16T00:56:38.384Z,102257.56
2023-02-16T00:59:07.406Z,102260.13
2023-02-16T01:01:34.511Z,102250.88
2023-02-16T01:04:02.112Z,102243.06
2023-02-16T01:06:47.372Z,102242.19
2023-02-16T01:09:34.312Z,102246.53
2023-02-16T01:12:02.594Z,102237.84
2023-02-16T01:14:30.730Z,102228.59
2023-02-16T01:16:57.674Z,102243.97
2023-02-16T01:19:24.569Z,102234.50
2023-02-16T01:21:51.312Z,102237.94
2023-02-16T01:24:18.149Z,102241.19
2023-02-16T01:26:48.056Z,102238.63
2023-02-16T01:29:16.509Z,102232.03
2023-02-16T01:31:43.514Z,102237.06
2023-02-16T01:34:10.957Z,102217.50
2023-02-16T01:36:42.573Z,102227.50
2023-02-16T01:39:12.518Z,102224.72
2023-02-16T01:41:54.298Z,102221.28
2023-02-16T01:44:24.130Z,102219.50
2023-02-16T01:47:06.634Z,102220.38
2023-02-16T01:49:33.420Z,102216.16
2023-02-16T01:52:06.918Z,102220.38
2023-02-16T01:54:53.888Z,102223.94
2023-02-16T01:57:39.397Z,102212.00
2023-02-16T02:00:06.413Z,102193.97
2023-02-16T02:02:39.241Z,102214.31
2023-02-16T02:05:35.500Z,102214.47
2023-02-16T02:08:37.799Z,102207.88
2023-02-16T02:11:10.728Z,102211.53
2023-02-16T02:13:44.063Z,102195.38
2023-02-16T02:16:11.422Z,102200.78
2023-02-16T02:18:38.302Z,102199.31
2023-02-16T02:21:49.669Z,102196.06
2023-02-16T02:24:28.978Z,102192.53
2023-02-16T02:27:13.418Z,102193.41
2023-02-16T02:29:58.462Z,102195.38
2023-02-16T02:32:49.717Z,102187.78
2023-02-16T02:35:21.787Z,102184.84
2023-02-16T02:38:02.185Z,102182.34
2023-02-16T02:40:47.460Z,102177.31
2023-02-16T02:43:16.855Z,102180.88
2023-02-16T02:45:47.533Z,102181.78
2023-02-16T02:48:14.369Z,102176.72
2023-02-16T02:50:41.230Z,102179.31
2023-02-16T02:53:15.676Z,102181.06
2023-02-16T02:56:04.040Z,102176.81
2023-02-16T02:58:51.856Z,102168.34
2023-02-16T03:01:19.629Z,102174.34
2023-02-16T03:03:48.966Z,102168.56
2023-02-16T03:06:25.096Z,102169.41
2023-02-16T03:08:55.120Z,102170.41
2023-02-16T03:11:41.882Z,102158.56
2023-02-16T03:14:25.102Z,102162.88
2023-02-16T03:17:15.668Z,102152.84
2023-02-16T03:20:01.917Z,102148.50
2023-02-16T03:22:48.306Z,102152.41
2023-02-16T03:25:34.167Z,102147.28
2023-02-16T03:28:22.583Z,102141.38
2023-02-16T03:30:50.574Z,102144.16
2023-02-16T03:33:17.628Z,102152.50
2023-02-16T03:35:45.383Z,102149.06
2023-02-16T03:38:12.895Z,102152.72
2023-02-16T03:40:40.873Z,102151.22
2023-02-16T03:43:08.460Z,102154.66
2023-02-16T03:45:39.386Z,102158.22
2023-02-16T03:48:06.479Z,102153.00
2023-02-16T03:50:33.303Z,102150.34
2023-02-16T03:53:09.056Z,102154.66
2023-02-16T03:55:40.847Z,102155.66
2023-02-16T03:58:08.376Z,102156.56
2023-02-16T04:00:35.944Z,102158.31
2023-02-16T04:03:03.605Z,102165.22
2023-02-16T04:05:30.759Z,102161.84
2023-02-16T04:07:57.603Z,102168.78
2023-02-16T04:10:25.191Z,102161.84
2023-02-16T04:12:52.017Z,102166.13
2023-02-16T04:15:20.559Z,102170.56
2023-02-16T04:17:47.700Z,102173.19
2023-02-16T04:20:15.565Z,102165.41
2023-02-16T04:22:42.388Z,102170.56
2023-02-16T04:25:09.213Z,102162.06
2023-02-16T04:27:36.381Z,102154.38
2023-02-16T04:30:04.257Z,102156.94
2023-02-16T04:32:31.107Z,102152.75
2023-02-16T04:34:57.878Z,102154.72
2023-02-16T04:37:25.484Z,102152.38
2023-02-16T04:39:52.225Z,102153.03
2023-02-16T04:42:19.036Z,102147.13
2023-02-16T04:44:45.826Z,102148.97
2023-02-16T04:47:12.565Z,102157.59
2023-02-16T04:49:39.279Z,102161.03
2023-02-16T04:52:06.093Z,102155.03
2023-02-16T04:54:33.188Z,102155.03
2023-02-16T04:57:00.653Z,102148.19
2023-02-16T04:59:27.590Z,102145.81
2023-02-16T05:01:56.536Z,102139.78
2023-02-16T05:04:24.852Z,102142.34
2023-02-16T05:06:51.803Z,102144.91
2023-02-16T05:09:18.590Z,102142.47
2023-02-16T05:12:04.085Z,102140.59
2023-02-16T05:14:43.002Z,102132.00
2023-02-16T05:17:17.507Z,102137.13
2023-02-16T05:19:46.008Z,102133.78
2023-02-16T05:22:13.932Z,102132.78
2023-02-16T05:24:40.805Z,102126.88
2023-02-16T05:27:08.625Z,102127.78
2023-02-16T05:29:35.573Z,102121.81
2023-02-16T05:32:04.721Z,102116.69
2023-02-16T05:34:31.900Z,102116.69
2023-02-16T05:36:58.738Z,102117.38
2023-02-16T05:39:25.538Z,102112.16
2023-02-16T05:41:52.369Z,102113.25
2023-02-16T05:44:19.141Z,102113.03
2023-02-16T05:46:46.560Z,102120.56
2023-02-16T05:49:14.668Z,102123.06
2023-02-16T05:51:41.561Z,102116.94
2023-02-16T05:54:10.573Z,102128.06
2023-02-16T05:56:37.431Z,102122.06
2023-02-16T05:59:04.269Z,102124.72
2023-02-16T06:01:31.055Z,102120.50
2023-02-16T06:03:57.878Z,102121.38
2023-02-16T06:06:28.034Z,102126.31
2023-02-16T06:08:55.553Z,102129.66
2023-02-16T06:11:37.394Z,102110.53
2023-02-16T06:14:05.492Z,102123.72
2023-02-16T06:16:33.165Z,102125.50
2023-02-16T06:19:00.144Z,102125.44
2023-02-16T06:21:27.403Z,102132.34
2023-02-16T06:23:55.525Z,102137.34
2023-02-16T06:26:22.573Z,102140.81
2023-02-16T06:28:49.357Z,102133.03
2023-02-16T06:31:16.255Z,102131.25
2023-02-16T06:33:44.568Z,102136.41
2023-02-16T06:36:11.682Z,102133.03
2023-02-16T06:38:38.498Z,102135.34
2023-02-16T06:41:05.932Z,102138.50
2023-02-16T06:43:32.906Z,102142.03
2023-02-16T06:45:59.730Z,102142.13
2023-02-16T06:48:26.510Z,102141.41
2023-02-16T06:50:53.267Z,102140.53
2023-02-16T06:53:20.828Z,102140.72
2023-02-16T06:55:49.546Z,102138.25
2023-02-16T06:58:16.279Z,102133.22
2023-02-16T07:00:43.205Z,102131.50
2023-02-16T07:03:10.151Z,102137.47
2023-02-16T07:05:37.830Z,102141.09
2023-02-16T07:08:04.870Z,102147.38
2023-02-16T07:10:47.535Z,102148.09
2023-02-16T07:13:16.295Z,102145.69
2023-02-16T07:15:43.383Z,102139.22
2023-02-16T07:18:10.167Z,102158.38
2023-02-16T07:20:37.796Z,102165.28
2023-02-16T07:23:04.633Z,102163.31
2023-02-16T07:25:31.413Z,102164.31
2023-02-16T07:27:58.198Z,102159.38
2023-02-16T07:30:25.719Z,102159.59
2023-02-16T07:32:52.600Z,102160.69
2023-02-16T07:35:19.404Z,102159.09
2023-02-16T07:37:46.321Z,102163.44
2023-02-16T07:40:13.416Z,102165.22
2023-02-16T07:42:40.217Z,102161.84
2023-02-16T07:45:07.233Z,102168.56
2023-02-16T07:47:33.994Z,102173.72
2023-02-16T07:50:00.740Z,102161.34
2023-02-16T07:52:30.860Z,102174.97
2023-02-16T07:54:58.903Z,102164.97
2023-02-16T07:57:26.497Z,102166.63
2023-02-16T07:59:54.728Z,102170.28
2023-02-16T08:02:22.297Z,102173.91
2023-02-16T08:04:49.689Z,102173.31
2023-02-16T08:07:17.048Z,102178.25
2023-02-16T08:09:44.408Z,102193.69
2023-02-16T08:12:13.087Z,102188.63
2023-02-16T08:14:40.323Z,102186.06
2023-02-16T08:17:07.576Z,102186.44
2023-02-16T08:19:34.576Z,102191.56
2023-02-16T08:22:02.559Z,102190.94
2023-02-16T08:24:29.559Z,102192.88
2023-02-16T08:26:56.603Z,102192.28
2023-02-16T08:29:23.707Z,102187.94
2023-02-16T08:31:51.336Z,102186.38
2023-02-16T08:34:19.385Z,102191.00
2023-02-16T08:36:47.314Z,102192.94
2023-02-16T08:39:15.395Z,102192.75
2023-02-16T08:41:43.720Z,102194.53
2023-02-16T08:44:10.641Z,102202.25
2023-02-16T08:46:39.818Z,102203.22
2023-02-16T08:49:07.623Z,102206.78
2023-02-16T08:51:35.671Z,102210.22
2023-02-16T08:54:05.900Z,102201.78
2023-02-16T08:56:35.613Z,102208.00
2023-02-16T08:59:02.715Z,102208.72
2023-02-16T09:01:29.560Z,102210.50
2023-02-16T09:03:56.366Z,102208.19
2023-02-16T09:06:25.534Z,102211.47
2023-02-16T09:08:54.310Z,102208.97
2023-02-16T09:11:21.672Z,102211.38
2023-02-16T09:13:48.584Z,102214.66
2023-02-16T09:16:17.014Z,102211.00
2023-02-16T09:18:44.964Z,102207.31
2023-02-16T09:21:14.966Z,102206.03
2023-02-16T09:23:44.676Z,102204.94
2023-02-16T09:26:11.862Z,102203.16
2023-02-16T09:28:39.528Z,102207.94
2023-02-16T09:31:17.018Z,102216.56
2023-02-16T09:33:44.327Z,102208.22
2023-02-16T09:36:12.446Z,102214.31
2023-02-16T09:38:40.084Z,102196.16
2023-02-16T09:41:21.515Z,102184.28
2023-02-16T09:44:06.882Z,102178.53
2023-02-16T09:46:34.334Z,102177.63
2023-02-16T09:49:02.789Z,102189.00
2023-02-16T09:51:34.965Z,102188.28
2023-02-16T09:54:22.769Z,102195.66
2023-02-16T09:56:54.691Z,102195.97
2023-02-16T09:59:22.283Z,102195.88
2023-02-16T10:02:07.656Z,102197.53
2023-02-16T10:04:46.056Z,102205.31
2023-02-16T10:07:13.125Z,102191.53
2023-02-16T10:09:43.777Z,102194.59
2023-02-16T10:12:14.880Z,102206.16
2023-02-16T10:14:45.582Z,102213.00
2023-02-16T10:17:28.501Z,102213.09
2023-02-16T10:20:16.940Z,102202.03
2023-02-16T10:22:55.832Z,102200.44
2023-02-16T10:25:32.396Z,102198.22
2023-02-16T10:28:15.196Z,102196.03
2023-02-16T10:30:49.287Z,102199.16
2023-02-16T10:33:22.437Z,102178.56
2023-02-16T10:35:51.568Z,102193.09
2023-02-16T10:38:24.412Z,102186.91
2023-02-16T10:41:03.877Z,102191.03
2023-02-16T10:43:43.950Z,102193.00
2023-02-16T10:46:12.599Z,102195.84
2023-02-16T10:48:39.708Z,102195.84
2023-02-16T10:51:13.052Z,102196.81
2023-02-16T10:53:45.405Z,102199.00
2023-02-16T10:56:30.761Z,102203.50
2023-02-16T10:58:59.103Z,102193.94
2023-02-16T11:01:36.350Z,102193.13
2023-02-16T11:04:03.944Z,102192.34
2023-02-16T11:06:30.802Z,102186.66
2023-02-16T11:08:59.998Z,102182.88
2023-02-16T11:11:35.549Z,102184.97
2023-02-16T11:14:03.996Z,102178.38
2023-02-16T11:16:31.087Z,102184.44
2023-02-16T11:18:57.883Z,102168.41
2023-02-16T11:21:44.460Z,102158.47
2023-02-16T11:24:12.903Z,102156.53
2023-02-16T11:26:39.844Z,102160.47
2023-02-16T11:29:20.058Z,102156.47
2023-02-16T11:31:46.996Z,102140.16
2023-02-16T11:34:25.899Z,102144.13
2023-02-16T11:37:01.022Z,102137.56
2023-02-16T11:39:30.995Z,102141.34
2023-02-16T11:41:59.526Z,102131.34
2023-02-16T11:44:31.587Z,102136.81
2023-02-16T11:46:59.493Z,102146.75
2023-02-16T11:49:30.988Z,102143.81
2023-02-16T11:51:58.410Z,102143.34
2023-02-16T11:54:27.897Z,102124.91
2023-02-16T11:57:06.597Z,102145.69
2023-02-16T11:59:38.740Z,102150.03
2023-02-16T12:02:25.582Z,102138.72
2023-02-16T12:04:59.148Z,102134.81
2023-02-16T12:07:32.896Z,102135.63
2023-02-16T12:10:04.142Z,102135.41
2023-02-16T12:12:33.208Z,102127.38
2023-02-16T12:15:13.222Z,102124.22
2023-02-16T12:17:39.949Z,102122.06
2023-02-16T12:20:15.689Z,102118.97
2023-02-16T12:22:47.670Z,102120.75
2023-02-16T12:25:25.669Z,102095.75
2023-02-16T12:27:58.348Z,102086.06
2023-02-16T12:30:47.302Z,102077.19
2023-02-16T12:33:14.212Z,102071.63
2023-02-16T12:35:48.921Z,102063.13
2023-02-16T12:38:16.465Z,102064.91
2023-02-16T12:40:58.056Z,102064.59
2023-02-16T12:43:42.807Z,102059.16
2023-02-16T12:46:31.242Z,102047.53
2023-02-16T12:49:21.192Z,102048.38
2023-02-16T12:51:50.022Z,102051.09
2023-02-16T12:54:26.644Z,102037.72
2023-02-16T12:57:12.196Z,102029.00
2023-02-16T12:59:47.080Z,102039.69
2023-02-16T13:02:33.352Z,102037.34
2023-02-16T13:05:08.927Z,102035.22
2023-02-16T13:07:38.457Z,102034.50
2023-02-16T13:10:11.231Z,102040.72
2023-02-16T13:12:50.280Z,102042.69
2023-02-16T13:15:24.594Z,102040.34
2023-02-16T13:17:58.506Z,102043.56
2023-02-16T13:20:28.050Z,102031.78
2023-02-16T13:22:57.611Z,102025.22
2023-02-16T13:25:30.527Z,102033.09
2023-02-16T13:28:22.662Z,102020.34
2023-02-16T13:30:54.714Z,102023.84
2023-02-16T13:33:37.021Z,102021.25
2023-02-16T13:36:10.492Z,102012.41
2023-02-16T13:38:40.938Z,102004.38
2023-02-16T13:41:33.418Z,101996.81
2023-02-16T13:44:02.020Z,101996.84
2023-02-16T13:46:28.964Z,101995.09
2023-02-16T13:48:56.136Z,101993.38
2023-02-16T13:51:25.465Z,101980.75
2023-02-16T13:54:00.347Z,101976.69
2023-02-16T13:56:30.703Z,101969.00
2023-02-16T13:59:20.219Z,101968.94
2023-02-16T14:01:48.014Z,101967.19
2023-02-16T14:04:24.587Z,101969.84
2023-02-16T14:07:01.570Z,101966.22
2023-02-16T14:09:46.061Z,101969.69
2023-02-16T14:12:15.448Z,101964.50
2023-02-16T14:14:42.280Z,101963.69
2023-02-16T14:17:15.095Z,101970.59
2023-02-16T14:20:00.718Z,101969.69
2023-02-16T14:22:27.979Z,101958.06
2023-02-16T14:24:57.014Z,101956.16
2023-02-16T14:27:44.498Z,101948.84
2023-02-16T14:30:17.577Z,101948.13
2023-02-16T14:32:48.682Z,101943.16
2023-02-16T14:35:21.320Z,101944.59
2023-02-16T14:38:06.855Z,101946.94
2023-02-16T14:40:42.011Z,101940.13
2023-02-16T14:43:24.688Z,101940.22
2023-02-16T14:45:56.753Z,101942.94
2023-02-16T14:48:24.499Z,101932.59
2023-02-16T14:50:54.600Z,101929.06
2023-02-16T14:53:44.190Z,101937.00
2023-02-16T14:56:33.998Z,101931.66
2023-02-16T14:59:21.720Z,101942.91
2023-02-16T15:01:48.517Z,101942.50
2023-02-16T15:04:27.999Z,101948.34
2023-02-16T15:07:00.086Z,101944.53
2023-02-16T15:09:30.988Z,101953.06
2023-02-16T15:12:18.366Z,101947.91
2023-02-16T15:14:48.308Z,101951.47
2023-02-16T15:17:26.902Z,101943.19
2023-02-16T15:19:55.989Z,101940.19
2023-02-16T15:22:24.634Z,101945.25
2023-02-16T15:25:07.912Z,101945.94
2023-02-16T15:27:34.958Z,101945.53
2023-02-16T15:30:02.686Z,101942.59
2023-02-16T15:32:29.513Z,101945.81
2023-02-16T15:34:56.632Z,101936.84
2023-02-16T15:37:32.889Z,101939.94
2023-02-16T15:40:25.997Z,101939.66
2023-02-16T15:42:54.468Z,101936.06
2023-02-16T15:45:29.052Z,101933.22
2023-02-16T15:48:17.110Z,101928.97
2023-02-16T15:50:47.033Z,101923.50
2023-02-16T15:53:14.965Z,101931.13
2023-02-16T15:55:43.231Z,101929.38
2023-02-16T15:58:12.564Z,101935.34
2023-02-16T16:00:41.012Z,101935.28
2023-02-16T16:03:10.343Z,101923.03
2023-02-16T16:05:37.325Z,101917.16
2023-02-16T16:08:04.692Z,101919.59
2023-02-16T16:10:36.847Z,101904.47
2023-02-16T16:13:11.444Z,101914.03
2023-02-16T16:15:40.752Z,101906.84
2023-02-16T16:18:27.542Z,101903.25
2023-02-16T16:20:59.633Z,101904.09
2023-02-16T16:23:27.099Z,101895.47
2023-02-16T16:25:54.670Z,101892.84
2023-02-16T16:28:27.197Z,101898.03
2023-02-16T16:31:10.926Z,101882.25
2023-02-16T16:33:56.214Z,101900.41
2023-02-16T16:36:36.733Z,101890.53
2023-02-16T16:39:18.639Z,101893.22
2023-02-16T16:41:46.955Z,101880.13
2023-02-16T16:44:33.811Z,101882.69
2023-02-16T16:47:19.123Z,101876.53
2023-02-16T16:49:51.649Z,101870.50
2023-02-16T16:52:35.267Z,101867.03
2023-02-16T16:55:15.225Z,101864.31
2023-02-16T16:57:44.592Z,101856.59
2023-02-16T17:00:12.123Z,101857.50
2023-02-16T17:02:38.943Z,101859.16
2023-02-16T17:05:06.210Z,101846.19
2023-02-16T17:07:33.346Z,101855.69
2023-02-16T17:10:00.624Z,101848.03
2023-02-16T17:12:27.788Z,101852.34
2023-02-16T17:14:55.547Z,101849.88
2023-02-16T17:17:22.367Z,101859.38
2023-02-16T17:19:49.227Z,101845.56
2023-02-16T17:22:17.224Z,101844.81
2023-02-16T17:24:44.693Z,101839.75
2023-02-16T17:27:12.350Z,101847.56
2023-02-16T17:29:42.897Z,101840.81
2023-02-16T17:32:09.897Z,101828.88
2023-02-16T17:34:36.794Z,101828.94
2023-02-16T17:37:05.417Z,101829.09
2023-02-16T17:39:32.258Z,101826.38
2023-02-16T17:41:59.299Z,101834.09
2023-02-16T17:44:26.325Z,101830.78
2023-02-16T17:46:53.340Z,101832.53
2023-02-16T17:49:20.070Z,101835.16
2023-02-16T17:51:46.884Z,101838.56
2023-02-16T17:54:13.961Z,101820.34
2023-02-16T17:56:41.492Z,101838.66
2023-02-16T17:59:10.146Z,101834.31
2023-02-16T18:01:37.615Z,101834.97
2023-02-16T18:04:04.682Z,101833.41
2023-02-16T18:06:31.716Z,101831.72
2023-02-16T18:08:58.474Z,101826.56
2023-02-16T18:11:26.055Z,101829.16
2023-02-16T18:13:52.904Z,101825.81
2023-02-16T18:16:21.710Z,101835.25
2023-02-16T18:18:48.578Z,101826.72
2023-02-16T18:21:15.309Z,101817.25
2023-02-16T18:23:42.245Z,101822.28
2023-02-16T18:26:09.294Z,101824.00
2023-02-16T18:28:36.164Z,101815.44
2023-02-16T18:31:05.001Z,101811.97
2023-02-16T18:33:34.047Z,101795.63
2023-02-16T18:36:00.848Z,101794.72
2023-02-16T18:38:27.732Z,101794.41
2023-02-16T18:40:55.851Z,101807.59
2023-02-16T18:43:23.047Z,101805.13
2023-02-16T18:45:50.052Z,101812.78
2023-02-16T18:48:16.919Z,101812.03
2023-02-16T18:50:44.504Z,101821.47
2023-02-16T18:53:11.250Z,101824.81
2023-02-16T18:55:38.121Z,101820.66
2023-02-16T18:58:08.091Z,101823.28
2023-02-16T19:00:36.181Z,101822.38
2023-02-16T19:03:03.547Z,101822.38
2023-02-16T19:05:30.540Z,101830.09
2023-02-16T19:07:57.362Z,101831.94
2023-02-16T19:10:25.933Z,101825.16
2023-02-16T19:12:52.849Z,101816.56
2023-02-16T19:15:19.792Z,101821.59
2023-02-16T19:17:46.599Z,101825.16
2023-02-16T19:20:17.933Z,101822.56
2023-02-16T19:22:45.293Z,101819.22
2023-02-16T19:25:12.136Z,101812.34
2023-02-16T19:27:38.920Z,101815.13
2023-02-16T19:30:06.429Z,101817.59
2023-02-16T19:32:33.221Z,101815.97
2023-02-16T19:34:59.997Z,101816.88
2023-02-16T19:37:26.789Z,101816.94
2023-02-16T19:39:53.904Z,101814.34
2023-02-16T19:42:21.462Z,101816.13
2023-02-16T19:44:48.230Z,101812.72
2023-02-16T19:49:41.200Z,101808.25
2023-02-16T19:52:08.540Z,101805.66
2023-02-16T19:54:35.862Z,101809.88
2023-02-16T19:57:04.036Z,101809.06
2023-02-16T19:59:32.412Z,101804.03
2023-02-16T20:01:59.564Z,101808.38
2023-02-16T20:04:26.664Z,101805.81
2023-02-16T20:06:54.766Z,101812.72
2023-02-16T20:09:22.877Z,101802.25
2023-02-16T20:11:50.589Z,101793.81
2023-02-16T20:14:17.934Z,101796.25
2023-02-16T20:16:44.995Z,101801.56
2023-02-16T20:19:13.364Z,101798.13
2023-02-16T20:21:44.457Z,101804.13
2023-02-16T20:24:12.016Z,101798.97
2023-02-16T20:26:42.367Z,101796.50
2023-02-16T20:29:13.104Z,101788.59
2023-02-16T20:31:46.965Z,101799.13
2023-02-16T20:34:14.253Z,101797.50
2023-02-16T20:36:41.364Z,101791.31
2023-02-16T20:39:09.133Z,101795.72
2023-02-16T20:41:36.591Z,101797.44
2023-02-16T20:44:04.816Z,101797.34
2023-02-16T20:46:32.763Z,101797.44
2023-02-16T20:49:00.003Z,101792.13
2023-02-16T20:51:27.177Z,101770.53
2023-02-16T20:53:54.742Z,101773.47
2023-02-16T20:56:24.783Z,101767.47
2023-02-16T20:58:54.688Z,101765.38
2023-02-16T21:01:24.694Z,101777.72
2023-02-16T21:03:53.931Z,101780.25
2023-02-16T21:06:21.807Z,101768.41
2023-02-16T21:08:48.858Z,101776.94
2023-02-16T21:11:16.513Z,101767.63
2023-02-16T21:13:44.253Z,101767.72
2023-02-16T21:16:12.308Z,101760.91
2023-02-16T21:18:40.706Z,101771.97
2023-02-16T21:21:10.013Z,101764.31
2023-02-16T21:23:37.060Z,101768.59
2023-02-16T21:26:06.121Z,101775.56
2023-02-16T21:28:33.416Z,101769.50
2023-02-16T21:31:10.071Z,101764.31
2023-02-16T21:33:37.973Z,101767.81
2023-02-16T21:36:09.817Z,101766.25
2023-02-16T21:38:37.495Z,101765.38
2023-02-16T21:41:26.035Z,101762.75
2023-02-16T21:44:00.525Z,101752.47
2023-02-16T21:46:33.139Z,101750.72
2023-02-16T21:49:00.231Z,101749.84
2023-02-16T21:51:30.884Z,101746.38
2023-02-16T21:53:58.834Z,101748.91
2023-02-16T21:56:25.841Z,101749.91
2023-02-16T21:58:52.965Z,101742.84
2023-02-16T22:01:22.669Z,101742.91
2023-02-16T22:03:50.322Z,101744.59
2023-02-16T22:06:17.434Z,101739.44
2023-02-16T22:08:44.548Z,101748.06
2023-02-16T22:11:13.390Z,101748.13
2023-02-16T22:13:40.916Z,101741.97
2023-02-16T22:16:17.897Z,101742.16
2023-02-16T22:18:44.994Z,101750.66
2023-02-16T22:21:12.628Z,101752.44
2023-02-16T22:23:39.854Z,101755.19
2023-02-16T22:26:07.976Z,101759.41
2023-02-16T22:28:36.898Z,101764.63
2023-02-16T22:31:08.667Z,101760.22
2023-02-16T22:33:35.717Z,101756.81
2023-02-16T22:36:09.352Z,101760.28
2023-02-16T22:38:36.443Z,101757.69
2023-02-16T22:41:06.995Z,101742.28
2023-02-16T22:43:34.861Z,101743.91
2023-02-16T22:46:12.264Z,101742.78
2023-02-16T22:48:39.620Z,101758.31
2023-02-16T22:51:09.314Z,101750.09
2023-02-16T22:53:36.638Z,101756.06
2023-02-16T22:56:10.742Z,101750.75
2023-02-16T22:58:37.848Z,101753.44
2023-02-16T23:01:12.234Z,101751.66
2023-02-16T23:03:39.869Z,101754.25
2023-02-16T23:06:14.584Z,101748.91
2023-02-16T23:08:43.268Z,101750.75
2023-02-16T23:11:10.677Z,101749.13
2023-02-16T23:13:37.788Z,101755.06
2023-02-16T23:16:11.763Z,101742.16
2023-02-16T23:18:39.533Z,101748.38
2023-02-16T23:21:27.779Z,101739.63
2023-02-16T23:23:56.020Z,101749.31
2023-02-16T23:26:27.372Z,101746.50
2023-02-16T23:28:59.425Z,101737.84
2023-02-16T23:31:27.153Z,101750.13
2023-02-16T23:33:56.191Z,101750.09
2023-02-16T23:36:23.200Z,101743.09
2023-02-16T23:38:50.280Z,101749.09
2023-02-16T23:41:17.417Z,101747.38
2023-02-16T23:43:44.617Z,101743.09
2023-02-16T23:46:11.874Z,101734.59
2023-02-16T23:48:38.966Z,101739.63
2023-02-16T23:51:06.148Z,101733.59
2023-02-16T23:53:34.239Z,101732.78
2023-02-16T23:56:07.702Z,101744.91
2023-02-16T23:58:42.244Z,101738.84
